createdAt,value
2022-09-20T00:01:29.808Z,95.10
2022-09-20T00:03:58.447Z,95.22
2022-09-20T00:06:28.214Z,95.43
2022-09-20T00:08:56.861Z,95.45
2022-09-20T00:11:28.887Z,95.49
2022-09-20T00:13:57.553Z,95.59
2022-09-20T00:16:27.085Z,95.76
2022-09-20T00:18:56.182Z,95.49
2022-09-20T00:21:28.932Z,95.65
2022-09-20T00:23:57.772Z,96.00
2022-09-20T00:26:28.734Z,95.90
2022-09-20T00:28:57.531Z,95.95
2022-09-20T00:31:25.155Z,96.08
2022-09-20T00:34:15.747Z,96.43
2022-09-20T00:36:43.796Z,96.12
2022-09-20T00:39:12.933Z,96.31
2022-09-20T00:41:40.797Z,96.11
2022-09-20T00:44:47.810Z,96.29
2022-09-20T00:47:37.336Z,96.17
2022-09-20T00:50:15.329Z,96.63
2022-09-20T00:52:44.245Z,96.46
2022-09-20T00:55:11.777Z,96.48
2022-09-20T00:57:40.038Z,96.86
2022-09-20T01:00:11.207Z,96.77
2022-09-20T01:02:42.531Z,96.92
2022-09-20T01:05:10.206Z,96.76
2022-09-20T01:07:38.405Z,96.70
2022-09-20T01:10:06.547Z,96.75
2022-09-20T01:12:35.532Z,96.59
2022-09-20T01:15:04.466Z,96.57
2022-09-20T01:17:32.996Z,96.75
2022-09-20T01:20:18.999Z,96.56
2022-09-20T01:22:52.533Z,96.59
2022-09-20T01:25:47.794Z,96.61
2022-09-20T01:28:15.727Z,97.15
2022-09-20T01:30:59.626Z,96.84
2022-09-20T01:34:09.772Z,96.78
2022-09-20T01:36:50.538Z,96.97
2022-09-20T01:39:31.969Z,97.07
2022-09-20T01:42:02.531Z,97.07
2022-09-20T01:44:38.938Z,97.76
2022-09-20T01:47:29.501Z,98.01
2022-09-20T01:50:46.360Z,98.31
2022-09-20T01:53:25.673Z,98.59
2022-09-20T01:56:00.886Z,98.43
2022-09-20T01:59:06.944Z,98.95
2022-09-20T02:02:00.938Z,99.14
2022-09-20T02:04:38.489Z,99.35
2022-09-20T02:07:27.519Z,99.55
2022-09-20T02:09:55.031Z,99.71
2022-09-20T02:12:33.799Z,99.66
2022-09-20T02:15:25.963Z,100.00
2022-09-20T02:18:02.743Z,100.00
2022-09-20T02:20:33.459Z,100.00
2022-09-20T02:23:26.070Z,100.00
2022-09-20T02:26:09.253Z,100.00
2022-09-20T02:28:52.455Z,100.00
2022-09-20T02:31:27.443Z,100.00
2022-09-20T02:34:04.103Z,100.00
2022-09-20T02:36:37.030Z,99.99
2022-09-20T02:39:17.135Z,99.96
2022-09-20T02:41:47.690Z,99.73
2022-09-20T02:44:54.759Z,99.66
2022-09-20T02:47:33.263Z,99.50
2022-09-20T02:50:45.668Z,99.07
2022-09-20T02:53:37.590Z,99.00
2022-09-20T02:56:08.997Z,98.57
2022-09-20T02:58:45.481Z,98.68
2022-09-20T03:01:32.918Z,98.60
2022-09-20T03:04:39.303Z,98.57
2022-09-20T03:07:26.744Z,98.19
2022-09-20T03:10:32.210Z,98.04
2022-09-20T03:13:22.709Z,97.56
2022-09-20T03:15:55.960Z,97.67
2022-09-20T03:18:32.237Z,97.47
2022-09-20T03:21:27.485Z,97.51
2022-09-20T03:24:19.890Z,97.31
2022-09-20T03:26:51.483Z,97.59
2022-09-20T03:29:37.629Z,97.41
2022-09-20T03:32:13.660Z,97.31
2022-09-20T03:34:56.578Z,97.67
2022-09-20T03:37:41.115Z,98.42
2022-09-20T03:40:27.838Z,97.36
2022-09-20T03:42:55.543Z,97.58
2022-09-20T03:45:52.566Z,97.55
2022-09-20T03:48:57.307Z,97.64
2022-09-20T03:51:58.755Z,98.18
2022-09-20T03:55:04.324Z,97.42
2022-09-20T03:57:41.127Z,97.33
2022-09-20T04:00:14.959Z,97.22
2022-09-20T04:03:00.685Z,97.19
2022-09-20T04:05:57.847Z,96.72
2022-09-20T04:09:02.270Z,96.91
2022-09-20T04:11:55.256Z,97.24
2022-09-20T04:14:43.405Z,97.36
2022-09-20T04:17:17.083Z,97.18
2022-09-20T04:19:47.935Z,97.01
2022-09-20T04:22:16.387Z,97.30
2022-09-20T04:25:20.523Z,98.11
2022-09-20T04:27:54.076Z,97.97
2022-09-20T04:30:28.019Z,98.15
2022-09-20T04:33:28.801Z,97.68
2022-09-20T04:36:29.130Z,97.59
2022-09-20T04:39:25.728Z,97.67
2022-09-20T04:42:15.484Z,97.56
2022-09-20T04:45:03.514Z,97.40
2022-09-20T04:47:50.158Z,97.18
2022-09-20T04:50:35.290Z,97.03
2022-09-20T04:53:07.085Z,97.05
2022-09-20T04:55:56.255Z,96.78
2022-09-20T04:58:48.372Z,96.51
2022-09-20T05:01:45.365Z,96.00
2022-09-20T05:04:42.017Z,96.09
2022-09-20T05:07:12.619Z,96.86
2022-09-20T05:10:05.136Z,96.31
2022-09-20T05:12:38.715Z,96.95
2022-09-20T05:15:24.824Z,97.30
2022-09-20T05:18:11.185Z,97.02
2022-09-20T05:20:50.973Z,96.91
2022-09-20T05:23:52.039Z,97.19
2022-09-20T05:26:56.978Z,97.62
2022-09-20T05:30:08.970Z,97.77
2022-09-20T05:32:52.295Z,97.58
2022-09-20T05:35:30.703Z,97.88
2022-09-20T05:38:18.892Z,97.96
2022-09-20T05:41:00.113Z,97.92
2022-09-20T05:43:35.422Z,97.72
2022-09-20T05:46:16.057Z,96.59
2022-09-20T05:48:53.577Z,94.70
2022-09-20T05:51:39.464Z,94.74
2022-09-20T05:54:48.415Z,94.92
2022-09-20T05:57:51.064Z,95.26
2022-09-20T06:00:20.151Z,95.11
2022-09-20T06:02:59.669Z,94.34
2022-09-20T06:05:46.926Z,93.16
2022-09-20T06:08:21.078Z,93.42
2022-09-20T06:11:00.431Z,93.06
2022-09-20T06:13:50.494Z,92.68
2022-09-20T06:16:25.774Z,93.19
2022-09-20T06:19:12.092Z,93.35
2022-09-20T06:21:56.713Z,93.57
2022-09-20T06:24:45.415Z,94.57
2022-09-20T06:27:16.066Z,95.29
2022-09-20T06:29:46.020Z,95.85
2022-09-20T06:32:17.260Z,95.99
2022-09-20T06:34:45.319Z,96.59
2022-09-20T06:37:54.732Z,96.82
2022-09-20T06:41:01.586Z,97.86
2022-09-20T06:43:31.127Z,97.77
2022-09-20T06:45:58.905Z,96.97
2022-09-20T06:48:26.513Z,97.36
2022-09-20T06:50:54.179Z,97.09
2022-09-20T06:53:30.325Z,96.49
2022-09-20T06:55:58.050Z,96.23
2022-09-20T06:58:26.431Z,96.62
2022-09-20T07:00:54.195Z,96.64
2022-09-20T07:03:21.773Z,96.36
2022-09-20T07:05:50.229Z,95.40
2022-09-20T07:08:17.855Z,95.78
2022-09-20T07:10:46.696Z,95.72
2022-09-20T07:13:14.391Z,95.24
2022-09-20T07:15:42.386Z,95.03
2022-09-20T07:18:10.159Z,95.94
2022-09-20T07:20:38.062Z,96.21
2022-09-20T07:23:05.709Z,96.31
2022-09-20T07:25:34.779Z,95.78
2022-09-20T07:28:02.512Z,95.05
2022-09-20T07:30:30.181Z,94.52
2022-09-20T07:32:57.748Z,94.55
2022-09-20T07:35:25.798Z,92.94
2022-09-20T07:37:58.004Z,92.19
2022-09-20T07:40:27.020Z,92.26
2022-09-20T07:42:57.163Z,90.04
2022-09-20T07:45:24.758Z,90.33
2022-09-20T07:47:53.793Z,89.40
2022-09-20T07:50:22.281Z,86.24
2022-09-20T07:52:52.477Z,86.91
2022-09-20T07:55:20.149Z,83.76
2022-09-20T07:57:47.911Z,85.71
2022-09-20T08:00:16.148Z,83.96
2022-09-20T08:02:45.658Z,84.03
2022-09-20T08:05:13.252Z,82.19
2022-09-20T08:07:41.642Z,82.96
2022-09-20T08:10:09.884Z,81.58
2022-09-20T08:15:26.282Z,79.28
2022-09-20T08:17:55.825Z,78.93
2022-09-20T08:20:26.170Z,78.14
2022-09-20T08:23:19.439Z,78.51
2022-09-20T08:25:43.141Z,78.02
2022-09-20T08:28:10.641Z,79.39
2022-09-20T08:30:38.350Z,77.39
2022-09-20T08:33:07.127Z,78.16
2022-09-20T08:35:38.273Z,78.03
2022-09-20T08:41:26.336Z,77.62
2022-09-20T08:43:57.170Z,77.65
2022-09-20T08:46:28.909Z,78.10
2022-09-20T08:48:57.745Z,76.62
2022-09-20T08:51:28.405Z,75.06
2022-09-20T08:53:56.043Z,76.46
2022-09-20T08:56:23.998Z,76.43
2022-09-20T08:58:52.009Z,75.64
2022-09-20T09:01:23.678Z,75.83
2022-09-20T09:03:51.907Z,74.26
2022-09-20T09:06:20.519Z,74.81
2022-09-20T09:08:53.774Z,75.53
2022-09-20T09:11:21.578Z,74.79
2022-09-20T09:13:53.376Z,76.16
2022-09-20T09:16:27.231Z,75.44
2022-09-20T09:18:58.181Z,75.32
2022-09-20T09:21:29.469Z,75.72
2022-09-20T09:24:09.969Z,74.11
2022-09-20T09:26:38.977Z,74.28
2022-09-20T09:29:23.715Z,75.89
2022-09-20T09:31:52.792Z,75.27
2022-09-20T09:34:26.902Z,76.02
2022-09-20T09:36:55.615Z,74.33
2022-09-20T09:39:30.630Z,75.01
2022-09-20T09:42:01.642Z,74.12
2022-09-20T09:44:30.780Z,74.95
2022-09-20T09:46:58.300Z,74.54
2022-09-20T09:49:36.630Z,72.25
2022-09-20T09:52:24.777Z,72.18
2022-09-20T09:55:03.059Z,71.28
2022-09-20T09:57:45.716Z,72.38
2022-09-20T10:00:22.637Z,69.81
2022-09-20T10:03:05.580Z,71.26
2022-09-20T10:06:12.028Z,70.01
2022-09-20T10:09:08.890Z,71.30
2022-09-20T10:11:45.564Z,71.60
2022-09-20T10:14:41.085Z,70.61
2022-09-20T10:17:38.982Z,71.79
2022-09-20T10:20:56.047Z,71.03
2022-09-20T10:24:02.507Z,71.18
2022-09-20T10:26:39.370Z,70.44
2022-09-20T10:29:13.460Z,70.06
2022-09-20T10:32:01.268Z,70.19
2022-09-20T10:34:48.268Z,70.64
2022-09-20T10:37:49.060Z,72.53
2022-09-20T10:40:24.785Z,72.27
2022-09-20T10:43:15.890Z,71.57
2022-09-20T10:46:14.429Z,73.09
2022-09-20T10:48:48.052Z,73.40
2022-09-20T10:51:48.508Z,73.04
2022-09-20T10:54:22.071Z,73.67
2022-09-20T10:56:51.301Z,73.77
2022-09-20T10:59:44.526Z,74.58
2022-09-20T11:02:35.484Z,75.76
2022-09-20T11:05:14.848Z,75.35
2022-09-20T11:08:06.147Z,76.08
2022-09-20T11:10:43.172Z,75.78
2022-09-20T11:13:35.260Z,74.85
2022-09-20T11:16:07.100Z,74.78
2022-09-20T11:18:40.606Z,75.07
2022-09-20T11:21:16.683Z,76.34
2022-09-20T11:23:51.137Z,76.03
2022-09-20T11:26:29.210Z,76.59
2022-09-20T11:29:22.157Z,76.62
2022-09-20T11:31:50.807Z,78.50
2022-09-20T11:34:26.036Z,81.75
2022-09-20T11:36:59.137Z,84.40
2022-09-20T11:39:41.269Z,89.08
2022-09-20T11:42:14.527Z,96.51
2022-09-20T11:44:42.236Z,98.76
2022-09-20T11:47:53.912Z,98.72
2022-09-20T11:50:38.588Z,97.83
2022-09-20T11:53:24.943Z,97.98
2022-09-20T11:56:02.402Z,97.26
2022-09-20T11:58:32.019Z,96.75
2022-09-20T12:00:59.569Z,95.17
2022-09-20T12:03:38.682Z,94.39
2022-09-20T12:06:28.623Z,92.12
2022-09-20T12:08:57.881Z,91.35
2022-09-20T12:11:36.492Z,90.06
2022-09-20T12:14:06.303Z,88.63
2022-09-20T12:16:47.392Z,86.04
2022-09-20T12:19:21.352Z,85.97
2022-09-20T12:22:01.104Z,84.83
2022-09-20T12:24:29.453Z,83.75
2022-09-20T12:27:01.449Z,83.50
2022-09-20T12:30:24.234Z,83.29
2022-09-20T12:32:58.469Z,84.94
2022-09-20T12:35:44.576Z,84.18
2022-09-20T12:38:33.306Z,81.08
2022-09-20T12:41:13.102Z,83.62
2022-09-20T12:43:53.171Z,83.41
2022-09-20T12:46:26.509Z,83.32
2022-09-20T12:49:12.292Z,79.44
2022-09-20T12:51:58.372Z,77.35
2022-09-20T12:54:25.884Z,74.89
2022-09-20T12:56:53.517Z,71.73
2022-09-20T12:59:23.627Z,70.44
2022-09-20T13:01:51.302Z,69.08
2022-09-20T13:04:40.614Z,69.39
2022-09-20T13:07:33.513Z,69.78
2022-09-20T13:10:03.735Z,69.27
2022-09-20T13:12:32.275Z,70.57
2022-09-20T13:15:01.525Z,71.78
2022-09-20T13:17:31.932Z,72.28
2022-09-20T13:19:59.783Z,73.01
2022-09-20T13:22:31.448Z,73.12
2022-09-20T13:25:03.627Z,72.40
2022-09-20T13:27:45.315Z,73.83
2022-09-20T13:30:27.498Z,75.38
2022-09-20T13:32:55.478Z,75.46
2022-09-20T13:35:29.633Z,76.73
2022-09-20T13:38:02.208Z,77.79
2022-09-20T13:40:47.620Z,77.95
2022-09-20T13:43:24.611Z,78.61
2022-09-20T13:45:56.355Z,78.71
2022-09-20T13:48:27.898Z,79.73
2022-09-20T13:50:55.538Z,80.35
2022-09-20T13:53:40.549Z,80.48
2022-09-20T13:56:21.204Z,80.58
2022-09-20T13:58:49.899Z,81.38
2022-09-20T14:01:21.322Z,82.55
2022-09-20T14:03:48.993Z,83.84
2022-09-20T14:06:16.509Z,84.56
2022-09-20T14:08:52.938Z,85.11
2022-09-20T14:11:28.161Z,85.66
2022-09-20T14:13:58.908Z,86.13
2022-09-20T14:16:49.288Z,86.46
2022-09-20T14:19:18.557Z,86.24
2022-09-20T14:21:47.810Z,86.06
2022-09-20T14:24:15.326Z,86.12
2022-09-20T14:26:43.171Z,85.71
2022-09-20T14:29:33.352Z,85.42
2022-09-20T14:32:14.495Z,85.42
2022-09-20T14:34:42.228Z,85.66
2022-09-20T14:37:18.481Z,85.89
2022-09-20T14:39:50.705Z,85.81
2022-09-20T14:42:35.341Z,86.36
2022-09-20T14:45:04.280Z,85.40
2022-09-20T14:47:39.867Z,85.00
2022-09-20T14:50:25.454Z,84.97
2022-09-20T14:53:11.283Z,85.18
2022-09-20T14:55:42.404Z,85.63
2022-09-20T14:58:11.781Z,85.88
2022-09-20T15:00:48.539Z,85.62
2022-09-20T15:03:16.731Z,86.03
2022-09-20T15:05:44.367Z,86.59
2022-09-20T15:08:12.387Z,86.91
2022-09-20T15:10:39.883Z,87.20
2022-09-20T15:13:10.685Z,87.41
2022-09-20T15:15:38.194Z,87.83
2022-09-20T15:18:11.332Z,88.00
2022-09-20T15:20:39.212Z,88.20
2022-09-20T15:23:06.664Z,88.19
2022-09-20T15:25:34.585Z,88.87
2022-09-20T15:28:02.232Z,88.55
2022-09-20T15:30:30.528Z,89.06
2022-09-20T15:33:02.294Z,89.04
2022-09-20T15:35:30.784Z,89.24
2022-09-20T15:37:58.493Z,89.87
2022-09-20T15:40:25.987Z,90.12
2022-09-20T15:42:58.276Z,90.30
2022-09-20T15:45:27.138Z,90.84
2022-09-20T15:47:57.921Z,91.37
2022-09-20T15:50:25.765Z,91.82
2022-09-20T15:52:59.755Z,92.16
2022-09-20T15:55:27.582Z,92.91
2022-09-20T15:57:55.065Z,93.34
2022-09-20T16:00:22.703Z,94.04
2022-09-20T16:02:50.592Z,96.12
2022-09-20T16:05:18.220Z,97.01
2022-09-20T16:07:47.307Z,97.14
2022-09-20T16:10:14.899Z,97.38
2022-09-20T16:12:45.032Z,98.15
2022-09-20T16:15:12.598Z,98.16
2022-09-20T16:17:58.656Z,98.41
2022-09-20T16:20:26.193Z,99.04
2022-09-20T16:22:53.756Z,99.43
2022-09-20T16:25:21.605Z,99.11
2022-09-20T16:27:49.077Z,100.00
2022-09-20T16:30:16.703Z,100.00
2022-09-20T16:32:44.226Z,100.00
2022-09-20T16:35:11.917Z,100.00
2022-09-20T16:37:39.977Z,100.00
2022-09-20T16:40:10.848Z,100.00
2022-09-20T16:42:39.424Z,100.00
2022-09-20T16:45:07.532Z,100.00
2022-09-20T16:47:37.946Z,100.00
2022-09-20T16:50:05.963Z,100.00
2022-09-20T16:52:34.064Z,100.00
2022-09-20T16:55:03.211Z,100.00
2022-09-20T16:57:32.137Z,100.00
2022-09-20T16:59:59.802Z,100.00
2022-09-20T17:02:27.316Z,100.00
2022-09-20T17:04:54.931Z,100.00
2022-09-20T17:07:24.437Z,100.00
2022-09-20T17:09:52.201Z,100.00
2022-09-20T17:12:22.657Z,100.00
2022-09-20T17:14:50.256Z,100.00
2022-09-20T17:17:18.128Z,100.00
2022-09-20T17:19:45.695Z,100.00
2022-09-20T17:22:15.773Z,100.00
2022-09-20T17:24:43.339Z,100.00
2022-09-20T17:27:10.985Z,100.00
2022-09-20T17:29:40.024Z,100.00
2022-09-20T17:32:07.748Z,100.00
2022-09-20T17:34:35.702Z,100.00
2022-09-20T17:37:03.577Z,100.00
2022-09-20T17:39:31.180Z,100.00
2022-09-20T17:41:58.763Z,100.00
2022-09-20T17:44:26.369Z,100.00
2022-09-20T17:46:54.396Z,100.00
2022-09-20T17:49:22.549Z,100.00
2022-09-20T17:51:52.744Z,100.00
2022-09-20T17:54:20.648Z,100.00
2022-09-20T17:56:51.898Z,100.00
2022-09-20T17:59:20.297Z,100.00
2022-09-20T18:01:49.822Z,100.00
2022-09-20T18:04:17.859Z,100.00
2022-09-20T18:06:46.845Z,100.00
2022-09-20T18:09:16.974Z,100.00
2022-09-20T18:11:46.577Z,100.00
2022-09-20T18:14:14.244Z,100.00
2022-09-20T18:16:44.306Z,100.00
2022-09-20T18:19:11.901Z,100.00
2022-09-20T18:21:40.945Z,100.00
2022-09-20T18:24:12.267Z,100.00
2022-09-20T18:26:40.612Z,100.00
2022-09-20T18:29:16.812Z,100.00
2022-09-20T18:31:52.320Z,100.00
2022-09-20T18:34:21.506Z,100.00
2022-09-20T18:36:55.077Z,100.00
2022-09-20T18:39:27.242Z,100.00
2022-09-20T18:41:55.127Z,100.00
2022-09-20T18:44:22.910Z,100.00
2022-09-20T18:46:52.437Z,100.00
2022-09-20T18:49:21.659Z,100.00
2022-09-20T18:51:49.450Z,100.00
2022-09-20T18:54:17.116Z,100.00
2022-09-20T18:56:46.146Z,100.00
2022-09-20T18:59:18.585Z,100.00
2022-09-20T19:01:58.173Z,100.00
2022-09-20T19:04:44.070Z,100.00
2022-09-20T19:07:45.292Z,100.00
2022-09-20T19:10:24.981Z,100.00
2022-09-20T19:13:10.687Z,100.00
2022-09-20T19:15:43.698Z,100.00
2022-09-20T19:18:43.819Z,100.00
2022-09-20T19:21:39.297Z,100.00
2022-09-20T19:24:21.861Z,100.00
2022-09-20T19:26:49.789Z,100.00
2022-09-20T19:29:18.729Z,100.00
2022-09-20T19:31:50.632Z,100.00
2022-09-20T19:34:22.443Z,100.00
2022-09-20T19:37:24.300Z,100.00
2022-09-20T19:40:03.972Z,100.00
2022-09-20T19:42:39.474Z,100.00
2022-09-20T19:45:25.544Z,100.00
2022-09-20T19:48:28.423Z,100.00
2022-09-20T19:50:56.659Z,100.00
2022-09-20T19:53:28.879Z,100.00
2022-09-20T19:56:02.190Z,100.00
2022-09-20T19:58:30.201Z,100.00
2022-09-20T20:00:58.507Z,100.00
2022-09-20T20:03:27.619Z,100.00
2022-09-20T20:06:07.841Z,100.00
2022-09-20T20:08:48.943Z,100.00
2022-09-20T20:11:48.995Z,100.00
2022-09-20T20:14:42.268Z,100.00
2022-09-20T20:17:15.407Z,100.00
2022-09-20T20:19:54.719Z,100.00
2022-09-20T20:22:52.534Z,100.00
2022-09-20T20:25:41.872Z,100.00
2022-09-20T20:28:09.382Z,100.00
2022-09-20T20:30:37.365Z,100.00
2022-09-20T20:33:06.108Z,100.00
2022-09-20T20:35:33.628Z,100.00
2022-09-20T20:38:01.193Z,100.00
2022-09-20T20:40:28.822Z,100.00
2022-09-20T20:43:02.165Z,100.00
2022-09-20T20:45:29.958Z,100.00
2022-09-20T20:47:58.750Z,100.00
2022-09-20T20:50:27.276Z,100.00
2022-09-20T20:52:55.800Z,100.00
2022-09-20T20:55:23.875Z,100.00
2022-09-20T20:57:58.540Z,100.00
2022-09-20T21:00:26.466Z,100.00
2022-09-20T21:03:00.726Z,100.00
2022-09-20T21:05:28.693Z,100.00
2022-09-20T21:07:58.028Z,100.00
2022-09-20T21:10:25.729Z,100.00
2022-09-20T21:12:56.250Z,100.00
2022-09-20T21:15:23.881Z,100.00
2022-09-20T21:17:52.482Z,100.00
2022-09-20T21:20:20.498Z,100.00
2022-09-20T21:22:48.018Z,100.00
2022-09-20T21:25:16.437Z,100.00
2022-09-20T21:27:43.936Z,100.00
2022-09-20T21:30:12.021Z,100.00
2022-09-20T21:32:39.601Z,100.00
2022-09-20T21:35:07.564Z,100.00
2022-09-20T21:37:35.432Z,100.00
2022-09-20T21:40:03.045Z,100.00
2022-09-20T21:42:30.785Z,100.00
2022-09-20T21:44:58.412Z,100.00
2022-09-20T21:47:25.919Z,100.00
2022-09-20T21:49:53.399Z,100.00
2022-09-20T21:52:20.951Z,100.00
2022-09-20T21:54:48.485Z,100.00
2022-09-20T21:57:16.045Z,100.00
2022-09-20T21:59:43.794Z,100.00
2022-09-20T22:02:11.384Z,100.00
2022-09-20T22:04:39.308Z,100.00
2022-09-20T22:07:06.825Z,100.00
2022-09-20T22:09:34.593Z,100.00
2022-09-20T22:12:02.334Z,100.00
2022-09-20T22:14:30.293Z,100.00
2022-09-20T22:16:59.530Z,100.00
2022-09-20T22:19:27.658Z,100.00
2022-09-20T22:21:55.640Z,100.00
2022-09-20T22:24:23.395Z,100.00
2022-09-20T22:26:51.323Z,100.00
2022-09-20T22:29:18.973Z,100.00
2022-09-20T22:31:47.404Z,100.00
2022-09-20T22:34:19.166Z,99.85
2022-09-20T22:36:46.965Z,98.01
2022-09-20T22:39:14.777Z,96.93
2022-09-20T22:41:43.209Z,96.56
2022-09-20T22:44:10.939Z,93.23
2022-09-20T22:46:40.394Z,92.27
2022-09-20T22:49:08.482Z,90.32
2022-09-20T22:51:36.256Z,90.30
2022-09-20T22:54:09.054Z,90.77
2022-09-20T22:56:36.971Z,90.86
2022-09-20T22:59:09.416Z,91.07
2022-09-20T23:01:47.951Z,91.17
2022-09-20T23:04:17.862Z,91.87
2022-09-20T23:06:51.958Z,91.27
2022-09-20T23:09:19.671Z,91.70
2022-09-20T23:11:47.533Z,92.37
2022-09-20T23:14:17.108Z,93.13
2022-09-20T23:16:44.676Z,93.29
2022-09-20T23:19:12.447Z,93.55
2022-09-20T23:21:40.753Z,92.63
2022-09-20T23:24:10.419Z,92.42
2022-09-20T23:26:38.463Z,92.04
2022-09-20T23:29:12.528Z,91.29
2022-09-20T23:31:45.873Z,91.27
2022-09-20T23:34:14.669Z,91.06
2022-09-20T23:36:42.699Z,90.87
2022-09-20T23:39:10.530Z,91.80
2022-09-20T23:41:41.387Z,91.83
2022-09-20T23:44:10.407Z,92.46
2022-09-20T23:46:38.768Z,92.21
2022-09-20T23:49:07.171Z,92.62
2022-09-20T23:51:35.668Z,92.42
2022-09-20T23:54:03.539Z,93.89
2022-09-20T23:56:32.167Z,93.66
2022-09-20T23:58:59.851Z,93.82
